»·PEaware :: N851TS KBFI-KGEG

N851TS :: KBFI-KGEG

FLIGHT INFORMATION

Flight Status: Arrived
Operator: Privately registered:
United States
More flights under this callsign
Pilot: Oliver L. (19934)
Aircraft: PILATUS PC-12 EAGLE
(PC12)
More flights by this aircraft type
Origin: KBFI Boeing Field/King Co Intl
United States
Destination: KGEG Spokane Intl
United States
More flights between these airports :: More routes between these airports
Route: CBAIN1 VAMPS V2 MWH ZOOMR1
File this flight plan on PilotEdge
Remarks:
Altitude:
(Current/Filed)
17,000ft
Speed:
(Current/Filed)
220kts
Departed: 08-Jan-19 09:06 PM
Arrived: 08-Jan-19 10:19 PM
Distance/Time
Traveled:
193nm/1:13
Distance/Time
To Go:
Arrived

Flight Plot

Page will automatically refresh every two minutes.

Flight plan parsing failed; only flown route is shown


Map Options




Map Legend


Flown Route
Filed Route
Departure Airport
Arrival Airport
Navaid (VOR, NDB)
Fix

Horizontal Profiles

Position Reports

Time Latitude Longitude Heading Altitude Ground
Speed
08-Jan-19 20:46 47.537254 -122.304719 98 24ft 0kts
08-Jan-19 20:47 47.537254 -122.304719 98 24ft 0kts
08-Jan-19 20:48 47.537254 -122.304720 98 24ft 0kts
08-Jan-19 20:49 47.537254 -122.304720 98 24ft 0kts
08-Jan-19 20:50 47.537284 -122.304943 119 24ft 1kts
08-Jan-19 20:51 47.537517 -122.304934 233 24ft 0kts
08-Jan-19 20:52 47.537517 -122.304934 233 24ft 0kts
08-Jan-19 20:53 47.537517 -122.304934 233 24ft 0kts
08-Jan-19 20:54 47.537517 -122.304934 233 24ft 0kts
08-Jan-19 20:55 47.537517 -122.304934 233 24ft 0kts
08-Jan-19 20:56 47.537517 -122.304934 233 24ft 0kts
08-Jan-19 20:57 47.537298 -122.305364 227 24ft 0kts
08-Jan-19 20:58 47.537298 -122.305364 227 24ft 0kts
08-Jan-19 20:59 47.535199 -122.303843 149 24ft 31kts
08-Jan-19 21:00 47.526606 -122.297964 150 24ft 32kts
08-Jan-19 21:01 47.519841 -122.292225 160 24ft 0kts
08-Jan-19 21:02 47.519841 -122.292225 160 24ft 0kts
08-Jan-19 21:03 47.519404 -122.293547 332 24ft 0kts
08-Jan-19 21:04 47.519794 -122.293876 331 24ft 33kts
08-Jan-19 21:05 47.544846 -122.315621 329 842ft 128kts
08-Jan-19 21:06 47.579546 -122.345338 329 2431ft 163kts
08-Jan-19 21:07 47.624802 -122.335955 14 4056ft 175kts
08-Jan-19 21:08 47.651272 -122.291017 120 6038ft 182kts
08-Jan-19 21:09 47.608507 -122.264351 164 8039ft 171kts
08-Jan-19 21:10 47.569323 -122.228320 153 10016ft 163kts
08-Jan-19 21:11 47.533279 -122.186298 150 11613ft 171kts
08-Jan-19 21:12 47.496282 -122.141081 150 13118ft 174kts
08-Jan-19 21:13 47.459115 -122.095310 150 14607ft 176kts
08-Jan-19 21:14 47.421621 -122.049199 150 16098ft 176kts
08-Jan-19 21:15 47.382973 -122.002062 149 17028ft 202kts
08-Jan-19 21:16 47.352435 -121.921634 116 17017ft 252kts
08-Jan-19 21:17 47.330556 -121.821037 116 17013ft 262kts
08-Jan-19 21:18 47.308141 -121.718110 116 17014ft 264kts
08-Jan-19 21:19 47.285633 -121.615331 116 17015ft 265kts
08-Jan-19 21:20 47.262909 -121.512060 116 17015ft 266kts
08-Jan-19 21:21 47.239932 -121.408196 116 17029ft 267kts
08-Jan-19 21:22 47.217433 -121.306928 116 17107ft 265kts
08-Jan-19 21:23 47.194408 -121.203835 117 17190ft 264kts
08-Jan-19 21:24 47.171102 -121.100047 116 17204ft 272kts
08-Jan-19 21:25 47.147242 -120.994255 116 17205ft 276kts
08-Jan-19 21:26 47.123025 -120.887436 116 17205ft 278kts
08-Jan-19 21:27 47.098433 -120.779490 116 17205ft 279kts
08-Jan-19 21:28 47.073695 -120.671451 116 17205ft 279kts
08-Jan-19 21:29 47.048870 -120.563574 116 17205ft 280kts
08-Jan-19 21:30 47.026635 -120.455580 92 17216ft 293kts
08-Jan-19 21:31 47.044601 -120.338826 82 17205ft 301kts
08-Jan-19 21:32 47.064594 -120.219617 82 17214ft 301kts
08-Jan-19 21:34 47.084304 -120.100855 82 17250ft 300kts
08-Jan-19 21:35 47.103864 -119.982208 82 17276ft 300kts
08-Jan-19 21:36 47.123336 -119.863215 82 17260ft 301kts
08-Jan-19 21:37 47.142794 -119.743519 82 17243ft 302kts
08-Jan-19 21:38 47.162168 -119.623462 82 17243ft 301kts
08-Jan-19 21:39 47.181320 -119.503934 82 17243ft 302kts
08-Jan-19 21:40 47.200433 -119.383763 82 17244ft 302kts
08-Jan-19 21:41 47.221895 -119.266478 77 17241ft 304kts
08-Jan-19 21:42 47.247709 -119.148084 78 17241ft 304kts
08-Jan-19 21:43 47.273724 -119.029772 77 17242ft 304kts
08-Jan-19 21:44 47.298615 -118.911615 77 17243ft 306kts
08-Jan-19 21:45 47.324675 -118.789069 76 16656ft 323kts
08-Jan-19 21:46 47.351903 -118.661344 76 15659ft 328kts
08-Jan-19 21:47 47.379414 -118.533481 76 14385ft 321kts
08-Jan-19 21:48 47.385614 -118.410089 93 12914ft 297kts
08-Jan-19 21:49 47.387919 -118.293933 94 11474ft 292kts
08-Jan-19 21:50 47.391209 -118.179841 94 9607ft 262kts
08-Jan-19 21:50 47.393739 -118.097924 94 8234ft 218kts
08-Jan-19 21:52 47.401968 -118.003969 74 6588ft 190kts
08-Jan-19 21:52 47.417050 -117.945483 73 5418ft 178kts
08-Jan-19 21:54 47.434822 -117.866913 74 3948ft 157kts
08-Jan-19 21:55 47.447485 -117.808399 72 3987ft 153kts
08-Jan-19 21:55 47.468235 -117.763316 48 3629ft 185kts
08-Jan-19 21:57 47.511269 -117.698832 47 3711ft 166kts
08-Jan-19 21:57 47.535495 -117.662430 48 3886ft 132kts
08-Jan-19 21:58 47.557729 -117.629309 50 3833ft 103kts
08-Jan-19 21:59 47.578380 -117.597932 47 3284ft 111kts
08-Jan-19 22:00 47.599649 -117.565837 46 2724ft 95kts
08-Jan-19 22:01 47.617951 -117.537577 45 2626ft 101kts
08-Jan-19 22:02 47.646553 -117.498389 40 3827ft 153kts
08-Jan-19 22:03 47.675745 -117.453733 40 5808ft 152kts
08-Jan-19 22:04 47.714157 -117.444292 291 6044ft 209kts
08-Jan-19 22:05 47.719478 -117.534939 254 6010ft 239kts
08-Jan-19 22:06 47.703259 -117.635751 252 5983ft 258kts
08-Jan-19 22:07 47.661881 -117.715871 223 5975ft 240kts
08-Jan-19 22:08 47.620750 -117.786869 223 5982ft 215kts
08-Jan-19 22:09 47.578044 -117.858163 224 4158ft 232kts
08-Jan-19 22:10 47.532383 -117.866001 144 4279ft 178kts
08-Jan-19 22:11 47.493943 -117.825635 116 4159ft 162kts
08-Jan-19 22:12 47.501541 -117.762769 73 3978ft 150kts
08-Jan-19 22:13 47.512492 -117.707677 73 3978ft 133kts
08-Jan-19 22:14 47.534572 -117.663849 47 3879ft 134kts
08-Jan-19 22:15 47.560658 -117.624566 46 3786ft 131kts
08-Jan-19 22:16 47.582977 -117.590940 46 3176ft 108kts
08-Jan-19 22:17 47.603232 -117.560442 44 2633ft 101kts
08-Jan-19 22:18 47.618249 -117.536796 102 2388ft 34kts
08-Jan-19 22:19 47.618772 -117.526877 168 2388ft 5kts

Navigation Log

Ident Type
Flight plan parsing failed, navigation log unavailable